Time;durP1;ratioP1;P1;durP2;ratioP2;P2;SDS_P1;SDS_P2;PMS_P1;PMS_P2;Temp;Humidity;BMP_temperature;BMP_pressure;BME280_temperature;BME280_humidity;BME280_pressure;Samples;Min_cycle;Max_cycle;Signal;HPM_P1;HPM_P2
2022/04/20 00:01:01;;;;;;;7.53;4.23;;;8.50;99.90;;;;;;10339606;28;20231;-80
2022/04/20 00:06:23;;;;;;;9.40;4.83;;;8.40;99.90;;;;;;10396324;28;20221;-80
2022/04/20 00:11:46;;;;;;;7.73;4.47;;;8.30;99.90;;;;;;10395536;28;20194;-78
2022/04/20 00:17:07;;;;;;;6.50;4.50;;;8.30;99.90;;;;;;10373414;28;20250;-79
2022/04/20 00:22:29;;;;;;;6.60;3.90;;;8.10;99.90;;;;;;10353378;28;20252;-80
2022/04/20 00:27:51;;;;;;;7.67;4.67;;;8.10;99.90;;;;;;10340997;28;20215;-78
2022/04/20 00:33:12;;;;;;;6.80;4.43;;;7.90;99.90;;;;;;10340395;28;20272;-78
2022/04/20 00:38:34;;;;;;;7.03;3.87;;;7.90;99.90;;;;;;10340084;28;20244;-78
2022/04/20 00:43:56;;;;;;;11.00;4.53;;;7.70;99.90;;;;;;10340347;28;20194;-78
2022/04/20 00:49:18;;;;;;;6.80;4.47;;;7.80;99.90;;;;;;10339495;28;20193;-78
2022/04/20 00:54:41;;;;;;;25.33;12.57;;;7.70;99.90;;;;;;10323782;28;20218;-78
2022/04/20 01:00:04;;;;;;;21.20;13.17;;;7.60;99.90;;;;;;10310386;28;20226;-78
2022/04/20 01:05:34;;;;;;;12.87;6.60;;;7.60;99.90;;;;;;10377999;28;20200;-78
2022/04/20 01:11:16;;;;;;;6.77;4.50;;;7.60;99.90;;;;;;10380541;28;20272;-79
2022/04/20 01:16:55;;;;;;;11.23;4.53;;;7.50;99.90;;;;;;10351041;28;20206;-79
2022/04/20 01:22:34;;;;;;;6.87;4.20;;;7.50;99.90;;;;;;10337431;28;20469;-79
2022/04/20 01:28:17;;;;;;;9.37;5.10;;;7.40;99.90;;;;;;10365279;28;20201;-78
2022/04/20 01:34:00;;;;;;;9.97;5.03;;;7.40;99.90;;;;;;10336047;28;20254;-78
2022/04/20 01:39:22;;;;;;;9.70;4.90;;;7.40;99.90;;;;;;10266689;28;20454;-79
2022/04/20 01:44:43;;;;;;;9.90;5.90;;;7.30;99.90;;;;;;10279321;29;20202;-78
2022/04/20 01:50:28;;;;;;;10.03;6.30;;;7.30;99.90;;;;;;10279074;28;20213;-78
2022/04/20 01:56:19;;;;;;;14.37;8.20;;;7.20;99.90;;;;;;10277429;28;20288;-78
2022/04/20 02:07:51;;;;;;;8.03;5.83;;;7.30;99.90;;;;;;10286403;28;20513;-78
2022/04/20 02:13:19;;;;;;;10.50;6.33;;;7.30;99.90;;;;;;10287102;28;20505;-78
2022/04/20 02:18:42;;;;;;;12.23;6.17;;;7.30;99.90;;;;;;10272175;28;20237;-78
2022/04/20 02:24:29;;;;;;;6.70;4.17;;;7.30;99.90;;;;;;10259579;29;20273;-78
2022/04/20 02:29:51;;;;;;;8.00;5.13;;;7.30;99.90;;;;;;10246055;29;20216;-78
2022/04/20 02:35:12;;;;;;;9.90;5.33;;;7.30;99.90;;;;;;10258534;28;20250;-78
2022/04/20 02:40:33;;;;;;;6.37;4.17;;;7.30;99.90;;;;;;10291360;28;20400;-79
2022/04/20 02:45:56;;;;;;;6.40;4.07;;;7.30;99.90;;;;;;10263644;29;20220;-78
2022/04/20 02:51:18;;;;;;;7.07;4.60;;;7.30;99.90;;;;;;10304468;28;20489;-79
2022/04/20 02:56:39;;;;;;;6.33;3.80;;;7.40;99.90;;;;;;10319698;28;20204;-79
2022/04/20 03:02:00;;;;;;;18.23;7.87;;;7.40;99.90;;;;;;10325907;28;20219;-79
2022/04/20 03:07:23;;;;;;;14.67;7.73;;;7.40;99.90;;;;;;10342890;28;20199;-78
2022/04/20 03:12:49;;;;;;;13.33;7.07;;;7.30;99.90;;;;;;10356415;28;20381;-78
2022/04/20 03:18:11;;;;;;;13.37;7.70;;;7.30;99.90;;;;;;10341681;28;20292;-77
2022/04/20 03:23:32;;;;;;;9.17;4.97;;;7.30;99.90;;;;;;10276339;28;20246;-79
2022/04/20 03:28:58;;;;;;;6.47;4.90;;;7.20;99.90;;;;;;10278131;28;20285;-78
2022/04/20 03:34:20;;;;;;;5.77;4.27;;;7.20;99.90;;;;;;10289690;28;20193;-78
2022/04/20 03:39:41;;;;;;;8.73;4.27;;;7.20;99.90;;;;;;10275019;29;20448;-78
2022/04/20 03:45:03;;;;;;;37.07;18.13;;;7.20;99.90;;;;;;10274895;28;20208;-79
2022/04/20 03:50:24;;;;;;;24.77;12.33;;;7.10;99.90;;;;;;10295985;28;20235;-79
2022/04/20 03:55:46;;;;;;;15.30;9.70;;;7.10;99.90;;;;;;10300888;28;20204;-79
2022/04/20 04:01:08;;;;;;;12.67;6.53;;;7.00;99.90;;;;;;10332643;28;20224;-80
2022/04/20 04:06:31;;;;;;;16.27;9.83;;;7.00;99.90;;;;;;10370793;28;20204;-80
2022/04/20 04:11:52;;;;;;;14.43;7.93;;;7.00;99.90;;;;;;10354360;28;20198;-80
2022/04/20 04:17:15;;;;;;;15.67;9.97;;;7.00;99.90;;;;;;10330736;28;20206;-80
2022/04/20 04:22:38;;;;;;;13.10;8.13;;;7.00;99.90;;;;;;10309007;28;20229;-80
2022/04/20 04:28:21;;;;;;;11.60;7.70;;;7.10;99.90;;;;;;10314161;28;20203;-79
2022/04/20 04:33:43;;;;;;;9.60;6.13;;;7.20;99.90;;;;;;10314125;28;20204;-79
2022/04/20 04:39:05;;;;;;;14.33;7.13;;;7.30;99.90;;;;;;10316085;28;20248;-79
2022/04/20 04:44:28;;;;;;;11.37;5.67;;;7.20;99.90;;;;;;10313228;28;20203;-78
2022/04/20 04:49:49;;;;;;;8.17;4.90;;;7.20;99.90;;;;;;10294562;28;20221;-79
2022/04/20 04:55:11;;;;;;;7.83;4.93;;;7.20;99.90;;;;;;10273531;29;20349;-80
2022/04/20 05:00:33;;;;;;;5.93;4.30;;;7.20;99.90;;;;;;10267674;29;20312;-79
2022/04/20 05:06:12;;;;;;;10.83;4.73;;;7.20;99.90;;;;;;10283319;28;20212;-80
2022/04/20 05:12:06;;;;;;;9.87;4.93;;;7.30;99.90;;;;;;10277955;29;20497;-80
2022/04/20 05:17:29;;;;;;;10.70;5.23;;;7.30;99.90;;;;;;10238846;29;20211;-80
2022/04/20 05:22:51;;;;;;;7.03;4.63;;;7.30;99.90;;;;;;10200975;29;20247;-80
2022/04/20 05:28:13;;;;;;;7.70;5.00;;;7.40;99.90;;;;;;10232096;29;20207;-80
2022/04/20 05:33:34;;;;;;;9.03;5.07;;;7.40;99.90;;;;;;10208524;29;20211;-79
2022/04/20 05:44:36;;;;;;;11.23;5.00;;;7.50;99.90;;;;;;10232534;29;20273;-80
2022/04/20 05:49:58;;;;;;;55.27;23.17;;;7.60;99.90;;;;;;10295195;28;20207;-81
2022/04/20 05:55:20;;;;;;;27.83;16.47;;;7.70;99.90;;;;;;10279382;28;20193;-81
2022/04/20 06:00:41;;;;;;;16.83;12.27;;;7.80;99.90;;;;;;10264938;29;20233;-80
2022/04/20 06:06:29;;;;;;;28.07;16.17;;;7.80;99.90;;;;;;10275961;29;20216;-80
2022/04/20 06:11:53;;;;;;;26.00;15.50;;;7.80;99.90;;;;;;10275026;29;20213;-80
2022/04/20 06:17:17;;;;;;;27.20;15.07;;;7.90;99.90;;;;;;10245404;29;20209;-78
2022/04/20 06:22:48;;;;;;;17.17;8.83;;;8.00;99.90;;;;;;10222294;29;20232;-80
2022/04/20 06:28:28;;;;;;;18.63;7.50;;;8.10;99.90;;;;;;10222695;29;20289;-80
2022/04/20 06:33:59;;;;;;;14.80;7.50;;;8.10;99.90;;;;;;10222206;29;20633;-79
2022/04/20 06:39:35;;;;;;;16.30;8.90;;;8.20;99.90;;;;;;10234103;29;20686;-80
2022/04/20 06:45:15;;;;;;;16.53;9.90;;;8.30;99.90;;;;;;10291895;28;20495;-80
2022/04/20 06:50:46;;;;;;;17.60;9.40;;;8.50;99.90;;;;;;10276417;29;20463;-80
2022/04/20 07:02:09;;;;;;;15.37;8.10;;;9.10;99.90;;;;;;10164757;29;20241;-81
2022/04/20 07:07:49;;;;;;;12.97;5.60;;;9.70;99.90;;;;;;10177790;29;20205;-81
2022/04/20 07:13:35;;;;;;;8.33;4.60;;;10.10;99.90;;;;;;10208560;29;20532;-82
2022/04/20 07:18:58;;;;;;;12.07;7.90;;;10.00;99.90;;;;;;10156846;29;20439;-80
2022/04/20 07:24:31;;;;;;;9.57;5.23;;;10.30;99.90;;;;;;10149453;29;20218;-79
2022/04/20 07:29:52;;;;;;;8.03;4.87;;;11.10;99.90;;;;;;10175629;29;20213;-81
2022/04/20 07:35:34;;;;;;;7.00;3.63;;;11.90;99.90;;;;;;10196755;28;20245;-78
2022/04/20 07:41:17;;;;;;;6.88;3.97;;;12.50;99.90;;;;;;10350297;28;20541;-79
2022/04/20 07:47:06;;;;;;;7.22;3.30;;;13.40;99.20;;;;;;10323010;28;20381;-76
2022/04/20 07:52:47;;;;;;;3.83;2.67;;;13.80;93.10;;;;;;10289100;28;20198;-79
2022/04/20 07:58:32;;;;;;;10.25;4.30;;;14.10;80.30;;;;;;10287204;28;20508;-79
2022/04/20 08:04:11;;;;;;;8.65;4.97;;;14.50;76.50;;;;;;10301473;28;20213;-76
2022/04/20 08:09:47;;;;;;;8.57;2.85;;;15.10;67.20;;;;;;10319298;28;20527;-77
2022/04/20 08:15:10;;;;;;;9.82;5.57;;;15.60;47.40;;;;;;10292064;28;20595;-75
2022/04/20 08:20:38;;;;;;;7.35;3.47;;;16.10;45.00;;;;;;10281416;28;20826;-78
2022/04/20 08:26:00;;;;;;;6.18;2.88;;;;;;;;;;10333177;28;20284;-78
2022/04/20 08:31:22;;;;;;;5.35;2.55;;;17.00;35.00;;;;;;10331303;28;20204;-80
2022/04/20 08:36:43;;;;;;;7.95;3.80;;;17.20;31.40;;;;;;10332947;28;20638;-81
2022/04/20 08:42:07;;;;;;;7.05;2.60;;;17.40;29.80;;;;;;10374746;28;20227;-80
2022/04/20 11:06:27;;;;;;;14.30;3.75;;;17.10;37.50;;;;;;10567063;27;20584;-80
2022/04/20 11:23:51;;;;;;;5.90;3.33;;;15.80;43.60;;;;;;10535376;28;20230;-80
2022/04/20 11:29:16;;;;;;;9.93;2.80;;;15.40;48.20;;;;;;10534327;28;20507;-76
2022/04/20 11:34:39;;;;;;;5.82;3.35;;;14.90;47.90;;;;;;10534086;28;20279;-80
2022/04/20 11:40:12;;;;;;;13.85;5.85;;;14.60;50.10;;;;;;10550343;28;20215;-78
2022/04/20 11:45:34;;;;;;;7.05;3.83;;;14.40;50.70;;;;;;10534772;28;20238;-81
2022/04/20 11:50:57;;;;;;;6.20;3.65;;;14.40;51.90;;;;;;10530798;28;20194;-81
2022/04/20 11:56:33;;;;;;;4.40;2.47;;;14.60;52.30;;;;;;10533385;28;20271;-78
2022/04/20 12:01:55;;;;;;;8.90;3.28;;;14.80;49.20;;;;;;10530851;28;20273;-81
2022/04/20 12:07:17;;;;;;;10.63;3.47;;;14.80;50.00;;;;;;10532992;28;20204;-80
2022/04/20 12:12:42;;;;;;;10.65;3.67;;;14.70;49.80;;;;;;10515849;28;20403;-79
2022/04/20 12:18:04;;;;;;;9.18;4.22;;;14.80;49.80;;;;;;10504432;28;20279;-81
2022/04/20 12:23:35;;;;;;;7.47;3.45;;;14.80;48.30;;;;;;10520536;28;20225;-79
2022/04/20 12:29:02;;;;;;;8.43;4.80;;;14.50;49.50;;;;;;10501254;28;20205;-81
2022/04/20 12:34:25;;;;;;;8.00;3.08;;;14.50;50.70;;;;;;10519507;28;20253;-81
2022/04/20 12:39:48;;;;;;;9.13;4.63;;;14.50;49.40;;;;;;10478680;28;20303;-81
2022/04/20 12:45:21;;;;;;;5.28;2.70;;;14.50;48.20;;;;;;10504169;28;20224;-80
2022/04/20 12:50:46;;;;;;;6.05;2.50;;;14.80;45.90;;;;;;10503907;28;20207;-80
2022/04/20 13:02:03;;;;;;;7.43;3.33;;;15.40;40.40;;;;;;10503028;28;20256;-79
2022/04/20 13:07:25;;;;;;;7.60;3.08;;;15.60;39.10;;;;;;10470911;28;20209;-82
2022/04/20 13:12:48;;;;;;;3.92;2.20;;;15.70;37.40;;;;;;10515397;28;20239;-81
2022/04/20 13:18:10;;;;;;;3.10;2.22;;;15.30;37.50;;;;;;10485052;28;20195;-79
2022/04/20 13:23:31;;;;;;;4.70;2.00;;;15.30;37.60;;;;;;10517962;28;20278;-79
2022/04/20 13:28:54;;;;;;;10.07;2.58;;;15.30;36.60;;;;;;10501289;28;20272;-81
2022/04/20 13:34:16;;;;;;;9.35;4.35;;;15.40;34.50;;;;;;10485217;28;20199;-81
2022/04/20 13:39:37;;;;;;;7.25;1.85;;;15.40;35.30;;;;;;10449479;28;20483;-80
2022/04/20 13:44:59;;;;;;;11.18;4.55;;;15.70;32.90;;;;;;10420210;28;20405;-81
2022/04/20 14:36:57;;;;;;;7.78;3.50;;;16.20;25.50;;;;;;10684291;27;20221;-78
2022/04/20 14:42:21;;;;;;;8.68;4.65;;;15.70;26.10;;;;;;10640362;27;20272;-79
2022/04/20 14:47:43;;;;;;;11.73;2.80;;;15.20;27.70;;;;;;10640269;27;20201;-78
2022/04/20 14:53:05;;;;;;;5.45;3.33;;;15.00;32.60;;;;;;10641222;27;20196;-80
2022/04/20 14:58:26;;;;;;;6.25;3.30;;;14.80;30.00;;;;;;10642476;27;20445;-79
2022/04/20 15:03:48;;;;;;;16.05;4.88;;;14.70;28.70;;;;;;10624813;27;20301;-81
2022/04/20 15:09:10;;;;;;;9.30;4.28;;;14.60;28.20;;;;;;10649316;27;20187;-79
2022/04/20 15:14:34;;;;;;;7.05;2.97;;;14.50;28.80;;;;;;10614833;28;20766;-79
2022/04/20 15:19:56;;;;;;;11.32;3.70;;;14.40;28.90;;;;;;10643473;27;20224;-79
2022/04/20 15:25:17;;;;;;;10.98;3.53;;;14.30;28.90;;;;;;10643034;27;20235;-78
2022/04/20 15:30:39;;;;;;;11.98;4.47;;;14.20;29.40;;;;;;10625108;27;20437;-78
2022/04/20 15:36:03;;;;;;;10.20;4.43;;;14.30;29.80;;;;;;10598551;28;20432;-78
2022/04/20 15:41:26;;;;;;;6.97;2.70;;;14.30;29.10;;;;;;10591642;28;20279;-78
2022/04/20 15:46:48;;;;;;;5.40;3.58;;;14.20;28.40;;;;;;10607081;28;20203;-78
2022/04/20 15:52:09;;;;;;;13.30;5.75;;;14.00;28.60;;;;;;10608310;28;20201;-78
2022/04/20 16:03:11;;;;;;;10.98;4.35;;;13.80;29.30;;;;;;10607307;28;20580;-78
2022/04/20 16:08:32;;;;;;;8.63;5.10;;;13.70;30.10;;;;;;10607493;28;20196;-78
2022/04/20 16:13:54;;;;;;;7.78;4.32;;;13.60;63.40;;;;;;10578352;28;20198;-79
2022/04/20 16:19:15;;;;;;;11.25;4.22;;;13.30;75.80;;;;;;10605271;28;20195;-78
2022/04/20 16:24:37;;;;;;;8.93;4.55;;;13.10;92.10;;;;;;10592215;28;20283;-79
2022/04/20 16:29:59;;;;;;;11.20;4.57;;;13.00;94.40;;;;;;10607579;28;20341;-79
2022/04/20 16:35:20;;;;;;;9.10;4.68;;;12.80;95.00;;;;;;10606582;28;20196;-78
2022/04/20 16:40:43;;;;;;;15.30;7.20;;;12.50;99.90;;;;;;10591592;28;20527;-79
2022/04/20 16:46:04;;;;;;;15.45;8.32;;;12.30;99.90;;;;;;10590788;28;20255;-79
2022/04/20 16:51:25;;;;;;;17.65;9.32;;;12.10;99.90;;;;;;10606638;28;20232;-78
2022/04/20 16:56:48;;;;;;;46.50;25.88;;;12.00;99.90;;;;;;10605366;28;20406;-78
2022/04/20 17:02:10;;;;;;;59.08;30.75;;;11.70;99.90;;;;;;10590713;28;20229;-78
2022/04/20 17:07:32;;;;;;;85.85;46.25;;;11.40;99.90;;;;;;10590880;28;20204;-78
2022/04/20 17:12:53;;;;;;;108.32;61.88;;;11.30;99.90;;;;;;10590048;28;20425;-78
2022/04/20 17:18:14;;;;;;;40.10;26.47;;;11.30;99.90;;;;;;10604384;28;20186;-78
2022/04/20 17:29:17;;;;;;;27.00;14.50;;;11.30;99.90;;;;;;10603663;28;20234;-78
2022/04/20 17:34:38;;;;;;;42.88;21.75;;;11.30;99.90;;;;;;10589407;28;20266;-78
2022/04/20 17:40:00;;;;;;;47.40;22.73;;;11.20;99.90;;;;;;10604628;28;20262;-79
2022/04/20 17:45:22;;;;;;;32.80;17.13;;;11.20;99.90;;;;;;10603438;28;20224;-79
2022/04/20 17:50:44;;;;;;;23.63;12.03;;;11.10;99.90;;;;;;10603782;28;20213;-79
2022/04/20 17:56:06;;;;;;;15.10;8.10;;;11.10;99.90;;;;;;10588649;28;20205;-78
2022/04/20 18:01:29;;;;;;;14.70;8.50;;;11.10;99.90;;;;;;10603132;28;20240;-79
2022/04/20 18:06:50;;;;;;;16.60;9.07;;;11.10;99.90;;;;;;10589050;28;20191;-78
2022/04/20 18:12:12;;;;;;;19.15;9.55;;;11.10;99.90;;;;;;10587960;28;20197;-79
2022/04/20 18:17:33;;;;;;;18.77;10.77;;;11.10;99.90;;;;;;10573601;28;20204;-78
2022/04/20 18:22:54;;;;;;;20.60;10.23;;;10.90;99.90;;;;;;10602955;28;20311;-78
2022/04/20 18:28:16;;;;;;;20.73;11.17;;;10.90;99.90;;;;;;10588015;28;20225;-79
2022/04/20 18:33:38;;;;;;;19.70;9.70;;;10.80;99.90;;;;;;10587998;28;20248;-78
2022/04/20 18:38:59;;;;;;;19.08;9.77;;;10.70;99.90;;;;;;10587812;28;20250;-78
2022/04/20 18:44:21;;;;;;;21.65;10.95;;;10.70;99.90;;;;;;10603118;28;20216;-78
2022/04/20 18:49:47;;;;;;;20.87;10.10;;;10.70;99.90;;;;;;10587562;28;20195;-78
2022/04/20 19:00:49;;;;;;;12.27;7.95;;;10.60;99.90;;;;;;10603015;28;20383;-78
2022/04/20 19:06:11;;;;;;;18.07;11.40;;;10.60;99.90;;;;;;10601815;28;20289;-78
2022/04/20 19:11:32;;;;;;;22.73;12.37;;;10.60;99.90;;;;;;10593603;28;20202;-78
2022/04/20 19:16:55;;;;;;;38.07;17.83;;;10.50;99.90;;;;;;10580705;28;20205;-78
2022/04/20 19:22:17;;;;;;;34.33;16.13;;;10.50;99.90;;;;;;10598454;28;20229;-78
2022/04/20 19:27:40;;;;;;;41.20;19.60;;;10.40;99.90;;;;;;10594703;28;20271;-78
2022/04/20 19:33:09;;;;;;;33.93;15.30;;;10.40;99.90;;;;;;10609136;28;20193;-78
2022/04/20 19:38:30;;;;;;;18.37;10.77;;;10.40;99.90;;;;;;10594178;28;20201;-78
2022/04/20 19:43:51;;;;;;;21.60;9.53;;;10.40;99.90;;;;;;10608069;28;20286;-78
2022/04/20 19:49:13;;;;;;;20.43;9.67;;;10.50;99.90;;;;;;10608801;28;20189;-78
2022/04/20 19:54:35;;;;;;;16.03;9.17;;;10.50;99.90;;;;;;10607919;28;20190;-78
2022/04/20 20:00:06;;;;;;;19.37;10.20;;;10.50;99.90;;;;;;10607442;28;20191;-78
2022/04/20 20:05:28;;;;;;;22.30;11.90;;;10.40;99.90;;;;;;10593238;28;20237;-78
2022/04/20 20:10:49;;;;;;;27.03;12.73;;;10.40;99.90;;;;;;10607228;28;20186;-78
2022/04/20 20:16:11;;;;;;;26.20;11.77;;;10.40;99.90;;;;;;10592522;28;20212;-78
2022/04/20 20:21:32;;;;;;;24.17;12.10;;;10.40;99.90;;;;;;10591802;28;20307;-78
2022/04/20 20:32:35;;;;;;;22.97;11.73;;;10.20;99.90;;;;;;10607678;28;20189;-78
2022/04/20 20:37:57;;;;;;;17.67;8.93;;;10.40;99.90;;;;;;10606844;28;20483;-78
2022/04/20 20:43:18;;;;;;;12.30;7.87;;;10.40;99.90;;;;;;10591972;28;20238;-78
2022/04/20 20:54:20;;;;;;;29.43;15.40;;;10.40;99.90;;;;;;10605582;28;20192;-79
2022/04/20 20:59:42;;;;;;;42.13;22.77;;;10.50;99.90;;;;;;10606238;27;20249;-79
2022/04/20 21:05:06;;;;;;;27.17;14.97;;;10.40;99.90;;;;;;10647824;27;20399;-79
2022/04/20 21:10:28;;;;;;;20.63;10.07;;;10.40;99.90;;;;;;10643033;27;20236;-79
2022/04/20 21:15:49;;;;;;;27.33;11.50;;;10.20;99.90;;;;;;10605723;28;20495;-79
2022/04/20 21:21:11;;;;;;;21.43;11.00;;;10.10;99.90;;;;;;10604393;28;20229;-78
2022/04/20 21:26:34;;;;;;;20.33;10.93;;;10.10;99.90;;;;;;10575252;28;20209;-78
2022/04/20 21:31:55;;;;;;;18.23;10.37;;;10.00;99.90;;;;;;10603877;28;20197;-78
2022/04/20 21:37:17;;;;;;;22.93;9.63;;;10.00;99.90;;;;;;10589815;28;20499;-79
2022/04/20 21:42:39;;;;;;;17.40;9.33;;;10.10;99.90;;;;;;10603966;28;20239;-79
2022/04/20 21:48:00;;;;;;;13.20;8.23;;;10.10;99.90;;;;;;10603764;28;20186;-79
2022/04/20 21:53:22;;;;;;;17.43;10.27;;;10.10;99.90;;;;;;10589042;28;20235;-78
2022/04/20 21:58:44;;;;;;;19.63;9.00;;;10.20;99.90;;;;;;10603656;28;20187;-78
2022/04/20 22:09:54;;;;;;;17.27;10.23;;;10.10;99.90;;;;;;10602775;28;20200;-78
2022/04/20 22:15:16;;;;;;;22.70;12.67;;;10.00;99.90;;;;;;10561759;28;20206;-79
2022/04/20 22:20:37;;;;;;;23.20;11.47;;;9.90;99.90;;;;;;10602262;28;20223;-78
2022/04/20 22:25:59;;;;;;;19.63;9.60;;;9.90;99.90;;;;;;10602622;28;20221;-78
2022/04/20 22:31:20;;;;;;;21.77;11.30;;;9.90;99.90;;;;;;10602185;28;20212;-79
2022/04/20 22:36:51;;;;;;;19.27;11.27;;;9.70;99.90;;;;;;10589455;28;20200;-79
2022/04/20 22:42:13;;;;;;;17.23;9.27;;;9.70;99.90;;;;;;10573695;28;20217;-78
2022/04/20 22:47:34;;;;;;;20.53;9.67;;;9.70;99.90;;;;;;10610908;28;20498;-78
2022/04/20 22:52:56;;;;;;;21.40;10.07;;;9.70;99.90;;;;;;10610559;28;20198;-78
2022/04/20 22:58:17;;;;;;;18.37;9.30;;;9.60;99.90;;;;;;10596036;28;20281;-79
2022/04/20 23:03:39;;;;;;;16.93;8.80;;;9.60;99.90;;;;;;10595351;28;20254;-78
2022/04/20 23:09:00;;;;;;;16.43;8.60;;;9.70;99.90;;;;;;10610239;28;20189;-78
2022/04/20 23:14:21;;;;;;;16.17;8.77;;;9.70;99.90;;;;;;10594648;28;20447;-78
2022/04/20 23:19:43;;;;;;;13.73;7.93;;;9.70;99.90;;;;;;10609723;28;20193;-78
2022/04/20 23:30:44;;;;;;;19.43;9.47;;;9.70;99.90;;;;;;10594616;28;20197;-78
2022/04/20 23:36:06;;;;;;;18.97;9.50;;;9.60;99.90;;;;;;10609348;28;20215;-79
2022/04/20 23:41:28;;;;;;;16.20;9.23;;;9.50;99.90;;;;;;10594232;28;20201;-78
2022/04/20 23:46:49;;;;;;;13.93;8.93;;;9.50;99.90;;;;;;10592982;28;20233;-78
2022/04/20 23:52:10;;;;;;;17.53;9.77;;;9.50;99.90;;;;;;10609647;28;20195;-78
2022/04/20 23:57:33;;;;;;;14.67;8.60;;;9.50;99.90;;;;;;10607586;28;20198;-78
